Mao, Dominican Republic
Current Conditions -  °F | °C
As of 4:00 PM on Sunday 23 Nov 2014 (Local Time) from MDST Reporting Station
Scattered Clouds Scattered Clouds  
Wind Chill: 29°   Ceiling: Unl
Heat Index: 33°   Visibility: 6mi
Dew Point: 23°   Wind: 16mph
Humidity: 70%   Direction: 100°E
Pressure: 29.91"   Gusts: NA
Location:  19.56°N, 71.08°W
Report Text: MDST 232000Z 10014KT 9999 SCT025 29/23 Q1013
Loading
Personal Weather Stations






























Interactive Weather Map New forecast layout! Learn more

10-Day Weather Forecast

Advertisements
Track Severe Weather on mobile